This is the latest recevied weather packets stored in our database for station/object MMMX. If no packets are shown the sender has not sent any weather packets the latest 10 day(s).
| Time | Temp. | Humidity | Pressure | Rain* | Wind** | Luminosity | Snow |
|---|---|---|---|---|---|---|---|
| 1777846424 | 23.89° C | 38% | 1023 hPa | - | - | - | - |
| 1777845828 | 25° C | 36% | 1023.4 hPa | - | - | - | - |
| 1777845227 | 25.56° C | 31% | 1023.4 hPa | - | - | - | - |
| 1777844630 | 25.56° C | 31% | 1023.4 hPa | - | - | - | - |
| 1777844027 | 25.56° C | 34% | 1023.7 hPa | - | - | - | - |
| 1777843428 | 25.56° C | 34% | 1023.7 hPa | - | - | - | - |
| 1777842827 | 25° C | 36% | 1023.7 hPa | - | - | - | - |
| 1777842228 | 25.56° C | 31% | 1024 hPa | - | - | - | - |
| 1777841626 | 25.56° C | 31% | 1024 hPa | - | - | - | - |
| 1777841025 | 26.67° C | 30% | 1025.4 hPa | - | - | - | - |
| 1777840423 | 26.67° C | 30% | 1025.4 hPa | - | - | - | - |
| 1777839828 | 26.67° C | 30% | 1025.4 hPa | - | - | - | - |
| 1777839228 | 26.67° C | 30% | 1025.4 hPa | - | - | - | - |
| 1777838624 | 26.67° C | 30% | 1025.4 hPa | - | - | - | - |
| 1777838025 | 25.56° C | 31% | 1026.1 hPa | - | - | - | - |
| 1777837428 | 25.56° C | 31% | 1026.1 hPa | - | - | - | - |
| 1777836826 | 25.56° C | 31% | 1026.1 hPa | - | - | - | - |
| 1777836226 | 25.56° C | 31% | 1026.1 hPa | - | - | - | - |
| 1777835627 | 25.56° C | 31% | 1026.1 hPa | - | - | - | - |
| 1777835025 | 25.56° C | 31% | 1026.1 hPa | - | - | - | - |
| 1777834428 | 25° C | 38% | 1027.4 hPa | - | - | - | - |
| 1777833825 | 25° C | 38% | 1027.4 hPa | - | - | - | - |
| 1777833230 | 25° C | 38% | 1027.4 hPa | - | - | - | - |
| 1777832626 | 25° C | 38% | 1027.4 hPa | - | - | - | - |
| 1777832027 | 25° C | 38% | 1027.4 hPa | - | - | - | - |
* Rain since midnight (hover to see other rain measurements)
** Current wind speed in m/s (hover to see current wind gust speed)